Mostein — E5U3129 — position and weather

sailwx.info

Track history (hours):
 
Tides and Currents Weather Stations Pressure Air Temp Water Temp Dewpoint Dewpoint Depression Visibility Wind Speed Wind Dir Waves Ship Positions

Mostein

Last reported at 2017-Dec-12 16:42 UTC. Time now 2017-Dec-15 16:08 UTC.
Position N 40°25' E 029°05'.

Length 90 m; draft 6.8 m.

Type: Cargo ship. MMSI: 518100188.

Date/timePositionNaut miles runAvg speedWind from/ knotsBaromVisibWave heightAir tempDewpointWater temp
2017-Dec-12 16:42N 40°25' E 029°05'0 0.0
2017-Dec-12 06:03N 40°25' E 029°05'0 0.0
2017-Dec-12 04:21N 40°25' E 029°05'0 0.0
2017-Dec-12 03:57N 40°25' E 029°05'0 0.0
2017-Dec-12 03:21N 40°25' E 029°05'0 0.0
2017-Dec-12 02:57N 40°25' E 029°05'0 0.0
2017-Dec-12 02:27N 40°25' E 029°05'0 0.0
2017-Dec-12 01:57N 40°25' E 029°05'0 0.0
2017-Dec-12 01:21N 40°25' E 029°05'0 0.0
2017-Dec-12 00:57N 40°25' E 029°05'0 0.0
2017-Dec-12 00:27N 40°25' E 029°05'0 0.0
2017-Dec-11 23:51N 40°25' E 029°05'0 0.0
2017-Dec-11 23:21N 40°25' E 029°05'0 0.0
2017-Dec-11 22:57N 40°25' E 029°05'0 0.0
2017-Dec-11 22:27N 40°25' E 029°05'0 0.0
2017-Dec-11 21:57N 40°25' E 029°05'0 0.0
2017-Dec-11 21:27N 40°25' E 029°05'0 0.0
2017-Dec-11 20:51N 40°25' E 029°05'0 0.0
2017-Dec-11 20:21N 40°25' E 029°05'0 0.0
2017-Dec-11 19:39N 40°25' E 029°05'0 0.0
2017-Dec-11 19:21N 40°25' E 029°05'0 0.0
2017-Dec-11 18:51N 40°25' E 029°05'0 0.0
2017-Dec-11 18:21N 40°25' E 029°05'0 0.0
2017-Dec-11 17:09N 40°25' E 029°05'0 0.0
2017-Dec-11 16:51N 40°25' E 029°05'0 0.0
2017-Dec-11 16:27N 40°25' E 029°05'0 0.0
2017-Dec-11 15:51N 40°25' E 029°05'0 0.0
2017-Dec-11 15:27N 40°25' E 029°05'0 0.0
2017-Dec-11 14:57N 40°25' E 029°05'0 0.0
2017-Dec-11 14:27N 40°25' E 029°05'0 0.0
2017-Dec-11 13:57N 40°25' E 029°05'0 0.0
2017-Dec-11 13:21N 40°25' E 029°05'0 0.0
2017-Dec-11 12:51N 40°25' E 029°05'0 0.0
2017-Dec-11 12:27N 40°25' E 029°05'0 0.0
2017-Dec-11 11:51N 40°25' E 029°05'0 0.0
2017-Dec-11 11:27N 40°25' E 029°05'0 0.0
2017-Dec-11 10:57N 40°25' E 029°05'0 0.0
2017-Dec-11 10:27N 40°25' E 029°05'0 0.0
2017-Dec-11 09:57N 40°25' E 029°05'0 0.0
2017-Dec-11 08:33N 40°25' E 029°05'0 0.0
2017-Dec-11 08:21N 40°25' E 029°05'0 0.0
2017-Dec-11 07:57N 40°25' E 029°05'0 0.0
2017-Dec-11 07:03N 40°25' E 029°05'0 0.0
2017-Dec-11 06:51N 40°25' E 029°05'0 0.0
2017-Dec-11 06:21N 40°25' E 029°05'0 0.0
2017-Dec-11 05:57N 40°25' E 029°05'0 0.0
2017-Dec-11 05:27N 40°25' E 029°05'0 0.0
2017-Dec-11 04:57N 40°25' E 029°05'0 0.3
2017-Dec-11 04:27N 40°25' E 029°05'  
2017-Dec-08 22:19N 43°50' E 029°37'3 9.2
2017-Dec-08 22:00N 43°52' E 029°38'9 9.0
2017-Dec-08 21:03N 44°01' E 029°40'0 9.0
2017-Dec-08 21:00N 44°01' E 029°40'4 9.0
2017-Dec-08 20:30N 44°06' E 029°41'4 8.8
2017-Dec-08 20:00N 44°10' E 029°41'4 8.9
2017-Dec-08 19:30N 44°15' E 029°42'4 8.7
2017-Dec-08 19:00N 44°19' E 029°43'4 8.8
2017-Dec-08 18:30N 44°23' E 029°44'4 8.8
2017-Dec-08 18:00N 44°28' E 029°45'5 8.9
2017-Dec-08 17:30N 44°32' E 029°46'  
Track history (hours):
 
Tides and Currents Weather Stations Pressure Air Temp Water Temp Dewpoint Dewpoint Depression Visibility Wind Speed Wind Dir Waves Ship Positions

Mostein

Last reported at 2017-Dec-12 16:42 UTC. Time now 2017-Dec-15 16:08 UTC.
Position N 40°25' E 029°05'.

Length 90 m; draft 6.8 m.

Type: Cargo ship. MMSI: 518100188.

Date/timePositionNaut miles runAvg speedWind from/ knotsBaromVisibWave heightAir tempDewpointWater temp
2017-Dec-12 16:42N 40°25' E 029°05'0 0.0
2017-Dec-12 06:03N 40°25' E 029°05'0 0.0
2017-Dec-12 04:21N 40°25' E 029°05'0 0.0
2017-Dec-12 03:57N 40°25' E 029°05'0 0.0
2017-Dec-12 03:21N 40°25' E 029°05'0 0.0
2017-Dec-12 02:57N 40°25' E 029°05'0 0.0
2017-Dec-12 02:27N 40°25' E 029°05'0 0.0
2017-Dec-12 01:57N 40°25' E 029°05'0 0.0
2017-Dec-12 01:21N 40°25' E 029°05'0 0.0
2017-Dec-12 00:57N 40°25' E 029°05'0 0.0
2017-Dec-12 00:27N 40°25' E 029°05'0 0.0
2017-Dec-11 23:51N 40°25' E 029°05'0 0.0
2017-Dec-11 23:21N 40°25' E 029°05'0 0.0
2017-Dec-11 22:57N 40°25' E 029°05'0 0.0
2017-Dec-11 22:27N 40°25' E 029°05'0 0.0
2017-Dec-11 21:57N 40°25' E 029°05'0 0.0
2017-Dec-11 21:27N 40°25' E 029°05'0 0.0
2017-Dec-11 20:51N 40°25' E 029°05'0 0.0
2017-Dec-11 20:21N 40°25' E 029°05'0 0.0
2017-Dec-11 19:39N 40°25' E 029°05'0 0.0
2017-Dec-11 19:21N 40°25' E 029°05'0 0.0
2017-Dec-11 18:51N 40°25' E 029°05'0 0.0
2017-Dec-11 18:21N 40°25' E 029°05'0 0.0
2017-Dec-11 17:09N 40°25' E 029°05'0 0.0
2017-Dec-11 16:51N 40°25' E 029°05'0 0.0
2017-Dec-11 16:27N 40°25' E 029°05'0 0.0
2017-Dec-11 15:51N 40°25' E 029°05'0 0.0
2017-Dec-11 15:27N 40°25' E 029°05'0 0.0
2017-Dec-11 14:57N 40°25' E 029°05'0 0.0
2017-Dec-11 14:27N 40°25' E 029°05'0 0.0
2017-Dec-11 13:57N 40°25' E 029°05'0 0.0
2017-Dec-11 13:21N 40°25' E 029°05'0 0.0
2017-Dec-11 12:51N 40°25' E 029°05'0 0.0
2017-Dec-11 12:27N 40°25' E 029°05'0 0.0
2017-Dec-11 11:51N 40°25' E 029°05'0 0.0
2017-Dec-11 11:27N 40°25' E 029°05'0 0.0
2017-Dec-11 10:57N 40°25' E 029°05'0 0.0
2017-Dec-11 10:27N 40°25' E 029°05'0 0.0
2017-Dec-11 09:57N 40°25' E 029°05'0 0.0
2017-Dec-11 08:33N 40°25' E 029°05'0 0.0
2017-Dec-11 08:21N 40°25' E 029°05'0 0.0
2017-Dec-11 07:57N 40°25' E 029°05'0 0.0
2017-Dec-11 07:03N 40°25' E 029°05'0 0.0
2017-Dec-11 06:51N 40°25' E 029°05'0 0.0
2017-Dec-11 06:21N 40°25' E 029°05'0 0.0
2017-Dec-11 05:57N 40°25' E 029°05'0 0.0
2017-Dec-11 05:27N 40°25' E 029°05'0 0.0
2017-Dec-11 04:57N 40°25' E 029°05'0 0.3
2017-Dec-11 04:27N 40°25' E 029°05'  
2017-Dec-08 22:19N 43°50' E 029°37'3 9.2
2017-Dec-08 22:00N 43°52' E 029°38'9 9.0
2017-Dec-08 21:03N 44°01' E 029°40'0 9.0
2017-Dec-08 21:00N 44°01' E 029°40'4 9.0
2017-Dec-08 20:30N 44°06' E 029°41'4 8.8
2017-Dec-08 20:00N 44°10' E 029°41'4 8.9
2017-Dec-08 19:30N 44°15' E 029°42'4 8.7
2017-Dec-08 19:00N 44°19' E 029°43'4 8.8
2017-Dec-08 18:30N 44°23' E 029°44'4 8.8
2017-Dec-08 18:00N 44°28' E 029°45'5 8.9
2017-Dec-08 17:30N 44°32' E 029°46'  

Dump ship's entire track history